• Join FlightAware (Why Join?)
  • Login
  • US Flag 
04:12AM EDT


 

Airport Tracker/Info


-or-


 

Live Flight TrackerFlight Track Log ✈ DLH1087 ✈ 06-May-2012 ✈ LFML / MRS - EDDF / FRA

Flight Track Log - Related Links

Times and Time Zones

All times are in EDT time to prevent confusion due to time zone crossing. See the DLH1087 flight status page for this flight to view local times or setup timezone preferences in your user account.

Time Position Orientation Groundspeed Altitude Reporting Facility
EDT Latitude Longitude Course Direction KTS MPH feet Rate Location/Type
04:54AM 43.8258 5.3884 18° North  Level Estimated
04:55AM 43.9119 5.4272 18° North  Level Estimated
04:56AM 43.9979 5.4662 18° North  Level Estimated
04:57AM 44.0840 5.5053 18° North  Level Estimated
04:58AM 44.1700 5.5445 18° North  Level Estimated
04:59AM 44.2560 5.5838 18° North  Level Estimated
05:00AM 44.3420 5.6233 18° North  Level Estimated
05:01AM 44.4279 5.6628 18° North  Level Estimated
05:02AM 44.5139 5.7025 18° North  Level Estimated
05:03AM 44.5998 5.7422 18° North  Level Estimated
05:04AM 44.6858 5.7821 18° North  Level Estimated
05:05AM 44.7717 5.8222 18° North  Level Estimated
05:06AM 44.8576 5.8623 18° North  Level Estimated
05:07AM 44.9435 5.9026 18° North  Level Estimated
05:08AM 45.0294 5.9429 18° North  Level Estimated
05:09AM 45.1152 5.9834 18° North  Level Estimated
05:10AM 45.2011 6.0241 18° North  Level Estimated
05:11AM 45.2869 6.0648 18° North  Level Estimated
05:12AM 45.3727 6.1057 19° North  Level Estimated
05:13AM 45.4585 6.1467 19° North  Level Estimated
05:14AM 45.5443 6.1878 19° North  Level Estimated
05:15AM 45.6301 6.2290 19° North  Level Estimated
05:16AM 45.7159 6.2704 19° North  Level Estimated
05:17AM 45.8016 6.3119 19° North  Level Estimated
05:18AM 45.8873 6.3535 19° North  Level Estimated
05:19AM 45.9731 6.3952 19° North  Level Estimated
05:20AM 46.0588 6.4371 19° North  Level Estimated
05:21AM 46.1445 6.4791 19° North  Level Estimated
05:22AM 46.2301 6.5213 19° North  Level Estimated
05:23AM 46.3158 6.5635 19° North  Level Estimated
05:24AM 46.4014 6.6060 19° North  Level Estimated
05:25AM 46.4870 6.6485 19° North  Level Estimated
05:26AM 46.5727 6.6912 19° North  Level Estimated
05:27AM 46.6582 6.7340 19° North  Level Estimated
05:28AM 46.7438 6.7769 19° North  Level Estimated
05:29AM 46.8294 6.8200 19° North  Level Estimated
05:30AM 46.9149 6.8632 19° North  Level Estimated
05:31AM 47.0005 6.9066 19° North  Level Estimated
05:32AM 47.0860 6.9501 19° North  Level Estimated
05:33AM 47.1715 6.9937 19° North  Level Estimated
05:34AM 47.2569 7.0375 19° North  Level Estimated
05:35AM 47.3424 7.0814 19° North  Level Estimated
05:36AM 47.4278 7.1255 19° North  Level Estimated
05:37AM 47.5133 7.1697 19° North  Level Estimated
05:38AM 47.5987 7.2140 19° North  Level Estimated
05:39AM 47.6841 7.2585 19° North  Level Estimated
05:40AM 47.7694 7.3031 19° North  Level Estimated
05:41AM 47.8548 7.3479 19° North  Level Estimated
05:42AM 47.9401 7.3928 19° North  Level Estimated
05:43AM 48.0255 7.4379 19° North  Level Estimated
05:44AM 48.1108 7.4832 20° North  Level Estimated
05:45AM 48.1960 7.5285 20° North  Level Estimated
05:46AM 48.2813 7.5741 20° North  Level Estimated
05:47AM 48.3666 7.6198 20° North  Level Estimated
05:48AM 48.4518 7.6656 20° North  Level Estimated
05:49AM 48.5370 7.7116 20° North  Level Estimated
05:50AM 48.6222 7.7577 20° North  Level Estimated
05:51AM 48.7074 7.8040 20° North  Level Estimated
05:52AM 48.7926 7.8505 20° North  Level Estimated
05:53AM 48.8777 7.8971 20° North  Level Estimated
05:54AM 48.9628 7.9439 20° North  Level Estimated
05:55AM 49.0479 7.9908 20° North  Level Estimated
05:56AM 49.1330 8.0379 20° North  Level Estimated
05:57AM 49.2181 8.0852 20° North  Level Estimated
05:58AM 49.3031 8.1326 20° North  Level Estimated
05:59AM 49.3881 8.1802 20° North  Level Estimated
06:00AM 49.4731 8.2280 20° North  Level Estimated
06:01AM 49.5581 8.2759 20° North  Level Estimated
06:02AM 49.6431 8.3239 20° North  Level Estimated
06:03AM 49.7281 8.3722 20° North  Level Estimated
06:04AM 49.8130 8.4206 20° North  Level Estimated
06:05AM 49.8979 8.4692 20° North  Level Estimated
06:06AM 49.9828 8.5180 20° North  Level Estimated
06:07AM 50.0676 8.5669 200° South  Level Estimated
06:08AM 49.9828 8.5180 20° North  Level Estimated
06:09AM 50.0676 8.5669 200° South  Level Estimated
06:10AM 49.9828 8.5180 20° North  Level Estimated
06:11AM 50.0676 8.5669 200° South  Level Estimated
06:12AM 49.9828 8.5180 20° North  Level Estimated
06:13AM 50.0676 8.5669 200° South  Level Estimated
06:14AM 49.9828 8.5180 20° North  Level Estimated
06:15AM 50.0676 8.5669 200° South  Level Estimated
06:16AM 49.9828 8.5180 20° North  Level Estimated
06:17AM 50.0676 8.5669 200° South  Level Estimated
06:18AM 49.9828 8.5180 20° North  Level Estimated
06:19AM 50.0676 8.5669 200° South  Level Estimated
06:20AM 49.9828 8.5180 20° North  Level Estimated
06:21AM 50.0676 8.5669 20° North  Level Estimated